Time;durP1;ratioP1;P1;durP2;ratioP2;P2;SDS_P1;SDS_P2;PMS_P1;PMS_P2;Temp;Humidity;BMP_temperature;BMP_pressure;BME280_temperature;BME280_humidity;BME280_pressure;Samples;Min_cycle;Max_cycle;Signal;HPM_P1;HPM_P2
2021/05/19 00:00:52;;;;;;;;;;;21.50;44.20;;;;;;461055;258;1315;-46
2021/05/19 00:02:53;;;;;;;;;;;21.50;44.10;;;;;;461034;258;1216;-46
2021/05/19 00:04:54;;;;;;;;;;;21.50;44.20;;;;;;461143;258;1095;-46
2021/05/19 00:06:56;;;;;;;;;;;21.50;44.10;;;;;;461131;258;1548;-46
2021/05/19 00:08:57;;;;;;;;;;;21.50;44.10;;;;;;461217;258;1094;-46
2021/05/19 00:10:59;;;;;;;;;;;21.50;44.10;;;;;;461088;258;1474;-46
2021/05/19 00:13:00;;;;;;;;;;;21.50;44.10;;;;;;461047;258;1138;-46
2021/05/19 00:15:01;;;;;;;;;;;21.60;44.10;;;;;;461196;258;2164;-46
2021/05/19 00:17:03;;;;;;;;;;;21.60;44.10;;;;;;461032;258;1528;-46
2021/05/19 00:19:04;;;;;;;;;;;21.60;44.10;;;;;;461190;258;1038;-46
2021/05/19 00:21:05;;;;;;;;;;;21.60;44.10;;;;;;461055;258;1567;-46
2021/05/19 00:23:06;;;;;;;;;;;21.60;44.10;;;;;;461215;258;1251;-46
2021/05/19 00:25:08;;;;;;;;;;;21.60;44.10;;;;;;461191;258;1114;-46
2021/05/19 00:27:09;;;;;;;;;;;21.60;44.00;;;;;;461105;258;1225;-46
2021/05/19 00:29:12;;;;;;;;;;;21.60;44.10;;;;;;461129;258;1365;-46
2021/05/19 00:31:14;;;;;;;;;;;21.60;44.10;;;;;;461037;258;2215;-46
2021/05/19 00:33:13;;;;;;;;;;;21.50;44.20;;;;;;461020;258;2239;-46
2021/05/19 00:35:15;;;;;;;;;;;21.10;45.20;;;;;;461093;258;2157;-46
2021/05/19 00:37:16;;;;;;;;;;;20.60;46.30;;;;;;461029;258;1212;-46
2021/05/19 00:39:17;;;;;;;;;;;20.20;47.40;;;;;;461088;258;1099;-46
2021/05/19 00:41:18;;;;;;;;;;;20.00;48.00;;;;;;461331;258;1297;-46
2021/05/19 00:43:20;;;;;;;;;;;19.80;48.50;;;;;;461345;258;1112;-46
2021/05/19 00:45:21;;;;;;;;;;;19.60;48.90;;;;;;461218;258;1209;-46
2021/05/19 00:47:22;;;;;;;;;;;19.50;49.30;;;;;;461083;258;1073;-46
2021/05/19 00:49:24;;;;;;;;;;;19.40;49.50;;;;;;461344;258;1112;-46
2021/05/19 00:51:25;;;;;;;;;;;19.30;49.70;;;;;;461075;258;1367;-46
2021/05/19 00:53:26;;;;;;;;;;;19.20;49.90;;;;;;461273;258;1041;-46
2021/05/19 00:55:27;;;;;;;;;;;19.10;50.10;;;;;;461407;258;2201;-46
2021/05/19 00:57:29;;;;;;;;;;;19.10;50.30;;;;;;461287;258;1147;-46
2021/05/19 00:59:30;;;;;;;;;;;19.10;50.40;;;;;;461315;258;1046;-46
2021/05/19 01:01:36;;;;;;;;;;;19.00;50.40;;;;;;461105;258;1348;-46
2021/05/19 01:03:33;;;;;;;;;;;19.00;50.50;;;;;;460762;258;1421;-46
2021/05/19 01:05:37;;;;;;;;;;;18.90;50.50;;;;;;461019;258;1145;-46
2021/05/19 01:07:37;;;;;;;;;;;19.00;50.70;;;;;;460777;258;2281;-46
2021/05/19 01:09:37;;;;;;;;;;;18.90;50.70;;;;;;460926;258;2423;-46
2021/05/19 01:11:38;;;;;;;;;;;18.90;50.80;;;;;;461070;258;1507;-46
2021/05/19 01:13:39;;;;;;;;;;;18.80;50.90;;;;;;461201;258;1082;-46
2021/05/19 01:15:40;;;;;;;;;;;18.80;51.00;;;;;;461215;258;2156;-46
2021/05/19 01:17:42;;;;;;;;;;;18.80;51.10;;;;;;461094;258;1369;-46
2021/05/19 01:19:43;;;;;;;;;;;18.70;51.20;;;;;;461144;258;1131;-46
2021/05/19 01:21:44;;;;;;;;;;;18.70;51.20;;;;;;461371;258;1330;-46
2021/05/19 01:23:46;;;;;;;;;;;18.60;51.40;;;;;;461392;258;1106;-46
2021/05/19 01:25:47;;;;;;;;;;;18.60;51.30;;;;;;461197;258;1499;-46
2021/05/19 01:27:48;;;;;;;;;;;18.60;51.20;;;;;;461081;258;1188;-46
2021/05/19 01:29:49;;;;;;;;;;;18.60;51.30;;;;;;461518;258;1117;-46
2021/05/19 01:31:51;;;;;;;;;;;18.60;51.30;;;;;;461172;258;1632;-46
2021/05/19 01:33:52;;;;;;;;;;;18.60;51.30;;;;;;461044;258;1093;-46
2021/05/19 01:35:53;;;;;;;;;;;18.60;51.40;;;;;;461096;258;2145;-46
2021/05/19 01:37:54;;;;;;;;;;;18.50;51.40;;;;;;461013;258;1342;-46
2021/05/19 01:39:56;;;;;;;;;;;18.60;51.40;;;;;;461087;258;1087;-46
2021/05/19 01:41:57;;;;;;;;;;;18.60;51.40;;;;;;461247;258;1199;-46
2021/05/19 01:43:58;;;;;;;;;;;18.60;51.40;;;;;;461178;258;1196;-46
2021/05/19 01:46:00;;;;;;;;;;;18.50;51.50;;;;;;461224;258;1728;-46
2021/05/19 01:48:01;;;;;;;;;;;18.50;51.60;;;;;;461210;258;1235;-46
2021/05/19 01:50:02;;;;;;;;;;;18.40;51.60;;;;;;461117;258;1100;-46
2021/05/19 01:52:04;;;;;;;;;;;18.40;51.80;;;;;;461060;258;1152;-46
2021/05/19 01:54:05;;;;;;;;;;;18.40;51.80;;;;;;461131;258;1055;-46
2021/05/19 01:56:06;;;;;;;;;;;18.40;51.70;;;;;;461195;258;2192;-46
2021/05/19 01:58:08;;;;;;;;;;;18.40;51.70;;;;;;461094;258;1101;-46
2021/05/19 02:00:09;;;;;;;;;;;18.40;51.70;;;;;;461130;258;1073;-46
2021/05/19 02:02:11;;;;;;;;;;;18.40;51.80;;;;;;461094;258;1163;-46
2021/05/19 02:04:11;;;;;;;;;;;18.30;51.80;;;;;;460991;258;2196;-46
2021/05/19 02:06:13;;;;;;;;;;;18.40;51.80;;;;;;461102;258;1263;-46
2021/05/19 02:08:14;;;;;;;;;;;18.60;51.20;;;;;;461114;258;1181;-46
2021/05/19 02:10:15;;;;;;;;;;;19.00;50.00;;;;;;461249;258;1093;-46
2021/05/19 02:12:17;;;;;;;;;;;19.40;48.90;;;;;;461174;258;1158;-46
2021/05/19 02:14:18;;;;;;;;;;;19.70;48.20;;;;;;461271;258;1111;-46
2021/05/19 02:16:20;;;;;;;;;;;19.90;47.60;;;;;;461126;258;2161;-46
2021/05/19 02:18:21;;;;;;;;;;;20.10;47.20;;;;;;461327;258;1137;-46
2021/05/19 02:20:22;;;;;;;;;;;20.20;46.90;;;;;;461095;258;1093;-46
2021/05/19 02:22:23;;;;;;;;;;;20.30;46.70;;;;;;461180;258;1335;-46
2021/05/19 02:24:25;;;;;;;;;;;20.30;46.50;;;;;;461316;258;1075;-46
2021/05/19 02:26:26;;;;;;;;;;;20.40;46.40;;;;;;461278;258;1258;-46
2021/05/19 02:28:27;;;;;;;;;;;20.50;46.30;;;;;;461116;258;1188;-46
2021/05/19 02:30:30;;;;;;;;;;;20.50;46.20;;;;;;461343;258;1095;-46
2021/05/19 02:32:30;;;;;;;;;;;20.50;46.00;;;;;;460925;258;2018;-46
2021/05/19 02:34:31;;;;;;;;;;;20.60;45.80;;;;;;461209;258;1051;-46
2021/05/19 02:36:32;;;;;;;;;;;20.60;45.80;;;;;;461219;258;2141;-46
2021/05/19 02:38:35;;;;;;;;;;;20.70;45.80;;;;;;461112;258;1217;-46
2021/05/19 02:40:36;;;;;;;;;;;20.70;45.60;;;;;;461171;258;1242;-46
2021/05/19 02:42:37;;;;;;;;;;;20.80;45.60;;;;;;461307;258;1163;-46
2021/05/19 02:44:38;;;;;;;;;;;20.80;45.50;;;;;;461140;258;1060;-46
2021/05/19 02:46:40;;;;;;;;;;;20.80;45.40;;;;;;461125;258;1345;-46
2021/05/19 02:48:41;;;;;;;;;;;20.90;45.40;;;;;;461232;258;1084;-46
2021/05/19 02:50:42;;;;;;;;;;;20.90;45.30;;;;;;461385;258;1138;-46
2021/05/19 02:52:43;;;;;;;;;;;20.90;45.30;;;;;;461289;258;1583;-46
2021/05/19 02:54:45;;;;;;;;;;;20.90;45.20;;;;;;461191;258;1099;-46
2021/05/19 02:56:46;;;;;;;;;;;20.90;45.20;;;;;;461107;258;2196;-46
2021/05/19 02:58:47;;;;;;;;;;;21.00;45.20;;;;;;461059;258;1118;-46
2021/05/19 03:00:49;;;;;;;;;;;21.00;45.20;;;;;;461322;258;1090;-46
2021/05/19 03:02:50;;;;;;;;;;;21.00;45.10;;;;;;461129;258;1184;-46
2021/05/19 03:04:51;;;;;;;;;;;21.00;45.00;;;;;;461353;258;1261;-46
2021/05/19 03:06:52;;;;;;;;;;;21.10;45.00;;;;;;461132;258;1373;-46
2021/05/19 03:08:54;;;;;;;;;;;21.10;44.90;;;;;;461092;258;1184;-46
2021/05/19 03:10:55;;;;;;;;;;;21.10;44.90;;;;;;461206;258;1181;-46
2021/05/19 03:12:57;;;;;;;;;;;21.20;44.90;;;;;;461171;258;1306;-46
2021/05/19 03:14:58;;;;;;;;;;;21.20;44.80;;;;;;461440;258;1073;-46
2021/05/19 03:17:02;;;;;;;;;;;21.20;44.80;;;;;;461013;258;2153;-46
2021/05/19 03:19:00;;;;;;;;;;;21.20;44.70;;;;;;460910;258;2218;-46
2021/05/19 03:21:02;;;;;;;;;;;21.20;44.70;;;;;;461061;258;1389;-46
2021/05/19 03:23:03;;;;;;;;;;;21.20;44.70;;;;;;461043;258;1342;-46
2021/05/19 03:25:04;;;;;;;;;;;21.20;44.60;;;;;;461160;258;1192;-46
2021/05/19 03:27:05;;;;;;;;;;;21.30;44.60;;;;;;461110;258;1217;-46
2021/05/19 03:29:07;;;;;;;;;;;21.30;44.60;;;;;;461511;258;1434;-46
2021/05/19 03:31:08;;;;;;;;;;;21.30;44.50;;;;;;461184;258;1270;-46
2021/05/19 03:33:09;;;;;;;;;;;21.30;44.50;;;;;;461102;258;1084;-46
2021/05/19 03:35:11;;;;;;;;;;;21.30;44.50;;;;;;461105;258;1095;-46
2021/05/19 03:37:12;;;;;;;;;;;21.40;44.40;;;;;;461105;258;2215;-46
2021/05/19 03:39:13;;;;;;;;;;;21.40;44.40;;;;;;461157;258;1165;-46
2021/05/19 03:41:14;;;;;;;;;;;21.40;44.40;;;;;;461465;258;1277;-46
2021/05/19 03:43:16;;;;;;;;;;;21.40;44.30;;;;;;461053;258;1264;-46
2021/05/19 03:45:17;;;;;;;;;;;21.50;44.30;;;;;;461386;258;1102;-46
2021/05/19 03:47:18;;;;;;;;;;;21.50;44.30;;;;;;460997;258;1206;-46
2021/05/19 03:49:20;;;;;;;;;;;21.40;44.20;;;;;;461171;258;1153;-46
2021/05/19 03:51:21;;;;;;;;;;;21.50;44.20;;;;;;461019;258;1312;-46
2021/05/19 03:53:22;;;;;;;;;;;21.50;44.20;;;;;;461092;258;1209;-46
2021/05/19 03:55:23;;;;;;;;;;;21.50;44.20;;;;;;461131;258;1496;-46
2021/05/19 03:57:25;;;;;;;;;;;21.50;44.20;;;;;;461234;258;2156;-46
2021/05/19 03:59:26;;;;;;;;;;;21.50;44.20;;;;;;461342;258;1061;-46
2021/05/19 04:01:27;;;;;;;;;;;21.60;44.20;;;;;;461103;258;1208;-46
2021/05/19 04:03:28;;;;;;;;;;;21.60;44.20;;;;;;461076;258;1308;-46
2021/05/19 04:05:33;;;;;;;;;;;21.60;44.20;;;;;;461180;258;1133;-46
2021/05/19 04:07:31;;;;;;;;;;;21.60;44.10;;;;;;460907;258;1495;-46
2021/05/19 04:09:32;;;;;;;;;;;21.60;44.10;;;;;;461091;258;1195;-46
2021/05/19 04:11:34;;;;;;;;;;;21.60;44.10;;;;;;461316;258;1402;-45
2021/05/19 04:13:35;;;;;;;;;;;21.60;44.10;;;;;;460995;258;1195;-46
2021/05/19 04:15:36;;;;;;;;;;;21.60;44.10;;;;;;461190;258;1081;-45
2021/05/19 04:17:37;;;;;;;;;;;21.60;44.10;;;;;;461049;258;2412;-46
2021/05/19 04:19:39;;;;;;;;;;;21.60;44.00;;;;;;461126;258;1076;-46
2021/05/19 04:21:40;;;;;;;;;;;21.60;44.10;;;;;;461256;258;1250;-46
2021/05/19 04:23:41;;;;;;;;;;;21.60;44.10;;;;;;461456;258;1087;-46
2021/05/19 04:25:43;;;;;;;;;;;21.50;44.20;;;;;;461173;258;1344;-46
2021/05/19 04:27:44;;;;;;;;;;;21.10;45.10;;;;;;461087;258;1180;-46
2021/05/19 04:29:45;;;;;;;;;;;20.70;46.30;;;;;;461015;258;1124;-46
2021/05/19 04:31:46;;;;;;;;;;;20.30;47.30;;;;;;460933;258;1670;-46
2021/05/19 04:33:48;;;;;;;;;;;20.00;47.90;;;;;;461037;258;1083;-46
2021/05/19 04:35:49;;;;;;;;;;;19.80;48.40;;;;;;461042;258;1701;-46
2021/05/19 04:37:51;;;;;;;;;;;19.70;48.80;;;;;;460968;258;2156;-46
2021/05/19 04:39:52;;;;;;;;;;;19.50;49.10;;;;;;460976;258;1224;-46
2021/05/19 04:41:53;;;;;;;;;;;19.50;49.30;;;;;;460974;258;1197;-46
2021/05/19 04:43:54;;;;;;;;;;;19.40;49.60;;;;;;460952;258;1092;-46
2021/05/19 04:45:56;;;;;;;;;;;19.30;49.80;;;;;;460995;258;1175;-46
2021/05/19 04:47:57;;;;;;;;;;;19.20;50.10;;;;;;461367;258;1174;-46
2021/05/19 04:49:58;;;;;;;;;;;19.10;50.20;;;;;;461150;258;1088;-46
2021/05/19 04:52:00;;;;;;;;;;;19.10;50.30;;;;;;460979;258;1356;-46
2021/05/19 04:54:01;;;;;;;;;;;19.10;50.50;;;;;;461001;258;1102;-46
2021/05/19 04:56:02;;;;;;;;;;;19.00;50.60;;;;;;461023;258;1213;-46
2021/05/19 04:58:04;;;;;;;;;;;19.00;50.60;;;;;;460774;258;2200;-46
2021/05/19 05:00:05;;;;;;;;;;;18.90;50.70;;;;;;460838;258;1063;-46
2021/05/19 05:02:06;;;;;;;;;;;18.90;50.70;;;;;;460866;258;1208;-46
2021/05/19 05:04:07;;;;;;;;;;;18.90;50.80;;;;;;460900;258;1101;-46
2021/05/19 05:06:09;;;;;;;;;;;18.90;50.90;;;;;;460824;258;1345;-46
2021/05/19 05:08:10;;;;;;;;;;;18.80;51.00;;;;;;460881;258;1202;-46
2021/05/19 05:10:12;;;;;;;;;;;18.80;51.00;;;;;;460814;258;1186;-46
2021/05/19 05:12:13;;;;;;;;;;;18.70;51.20;;;;;;460784;258;1468;-46
2021/05/19 05:14:14;;;;;;;;;;;18.70;51.20;;;;;;460760;258;1186;-46
2021/05/19 05:16:15;;;;;;;;;;;18.60;51.30;;;;;;460829;258;1363;-46
2021/05/19 05:18:17;;;;;;;;;;;18.60;51.30;;;;;;460900;258;2117;-46
2021/05/19 05:20:19;;;;;;;;;;;18.60;51.40;;;;;;460936;258;1114;-46
2021/05/19 05:22:19;;;;;;;;;;;18.60;51.30;;;;;;460816;259;2143;-46
2021/05/19 05:24:20;;;;;;;;;;;18.60;51.30;;;;;;460811;258;1244;-46
2021/05/19 05:26:22;;;;;;;;;;;18.60;51.40;;;;;;460831;258;1308;-46
2021/05/19 05:28:23;;;;;;;;;;;18.60;51.50;;;;;;460794;258;1102;-46
2021/05/19 05:30:24;;;;;;;;;;;18.60;51.60;;;;;;460716;258;1107;-45
2021/05/19 05:32:26;;;;;;;;;;;18.50;51.50;;;;;;460748;258;1261;-45
2021/05/19 05:34:27;;;;;;;;;;;18.50;51.50;;;;;;460763;258;1216;-46
2021/05/19 05:36:29;;;;;;;;;;;18.50;51.60;;;;;;460658;258;2209;-46
2021/05/19 05:38:30;;;;;;;;;;;18.50;51.60;;;;;;460869;258;1155;-46
2021/05/19 05:40:31;;;;;;;;;;;18.40;51.60;;;;;;460927;258;1197;-46
2021/05/19 05:42:33;;;;;;;;;;;18.40;51.70;;;;;;460820;258;1224;-46
2021/05/19 05:44:34;;;;;;;;;;;18.40;51.70;;;;;;460866;256;1221;-46
2021/05/19 05:46:35;;;;;;;;;;;18.40;51.70;;;;;;460843;258;1199;-46
2021/05/19 05:48:36;;;;;;;;;;;18.40;51.70;;;;;;460878;258;1138;-46
2021/05/19 05:50:38;;;;;;;;;;;18.40;51.80;;;;;;460733;258;1176;-46
2021/05/19 05:52:39;;;;;;;;;;;18.40;51.70;;;;;;460718;258;1261;-45
2021/05/19 05:54:40;;;;;;;;;;;18.30;51.90;;;;;;460609;258;1132;-46
2021/05/19 05:56:42;;;;;;;;;;;18.30;51.80;;;;;;460497;258;2204;-46
2021/05/19 05:58:43;;;;;;;;;;;18.30;51.80;;;;;;460540;258;1202;-46
2021/05/19 06:00:44;;;;;;;;;;;18.30;52.00;;;;;;460658;258;1156;-46
2021/05/19 06:02:45;;;;;;;;;;;18.30;51.90;;;;;;460597;258;1264;-46
2021/05/19 06:04:47;;;;;;;;;;;18.30;51.90;;;;;;460539;258;1474;-46
2021/05/19 06:06:48;;;;;;;;;;;18.30;51.90;;;;;;460709;258;1338;-46
2021/05/19 06:08:50;;;;;;;;;;;18.30;51.90;;;;;;460629;258;1228;-46
2021/05/19 06:10:51;;;;;;;;;;;18.30;52.00;;;;;;460882;258;1321;-46
2021/05/19 06:12:52;;;;;;;;;;;18.50;51.50;;;;;;460624;258;1223;-45
2021/05/19 06:14:54;;;;;;;;;;;18.90;50.30;;;;;;460638;258;1119;-46
2021/05/19 06:16:56;;;;;;;;;;;19.30;49.30;;;;;;460491;258;2212;-46
2021/05/19 06:18:57;;;;;;;;;;;19.60;48.50;;;;;;460512;258;1987;-46
2021/05/19 06:20:58;;;;;;;;;;;19.80;47.90;;;;;;460585;258;1207;-46
2021/05/19 06:22:59;;;;;;;;;;;19.90;47.50;;;;;;460554;258;1268;-46
2021/05/19 06:25:01;;;;;;;;;;;20.00;47.20;;;;;;460580;258;1085;-46
2021/05/19 06:27:02;;;;;;;;;;;20.20;46.90;;;;;;460571;258;1416;-46
2021/05/19 06:29:03;;;;;;;;;;;20.20;46.80;;;;;;460439;258;1325;-46
2021/05/19 06:31:05;;;;;;;;;;;20.30;46.60;;;;;;460454;258;1320;-46
2021/05/19 06:33:06;;;;;;;;;;;20.30;46.50;;;;;;460446;258;1227;-46
2021/05/19 06:35:07;;;;;;;;;;;20.40;46.40;;;;;;460491;258;1132;-46
2021/05/19 06:37:08;;;;;;;;;;;20.40;46.20;;;;;;460486;258;2219;-46
2021/05/19 06:39:10;;;;;;;;;;;20.50;46.10;;;;;;460436;258;1305;-46
2021/05/19 06:41:11;;;;;;;;;;;20.60;46.00;;;;;;460327;258;1340;-45
2021/05/19 06:43:12;;;;;;;;;;;20.60;45.90;;;;;;460397;258;1261;-46
2021/05/19 06:45:14;;;;;;;;;;;20.60;45.80;;;;;;460432;258;1159;-46
2021/05/19 06:47:15;;;;;;;;;;;20.70;45.70;;;;;;460389;258;1233;-46
2021/05/19 06:49:16;;;;;;;;;;;20.70;45.60;;;;;;460398;258;1157;-46
2021/05/19 06:51:18;;;;;;;;;;;20.80;45.60;;;;;;460205;258;1234;-46
2021/05/19 06:53:19;;;;;;;;;;;20.80;45.50;;;;;;460664;258;1078;-46
2021/05/19 06:55:22;;;;;;;;;;;20.80;45.40;;;;;;460293;258;1086;-46
2021/05/19 06:57:21;;;;;;;;;;;20.90;45.40;;;;;;460183;258;2369;-46
2021/05/19 06:59:23;;;;;;;;;;;20.90;45.40;;;;;;460383;258;1409;-46
2021/05/19 07:01:25;;;;;;;;;;;20.90;45.30;;;;;;460543;258;1608;-46
2021/05/19 07:03:26;;;;;;;;;;;20.90;45.30;;;;;;460487;258;1134;-46
2021/05/19 07:05:27;;;;;;;;;;;20.90;45.20;;;;;;460394;258;1133;-46
2021/05/19 07:07:28;;;;;;;;;;;20.90;45.20;;;;;;460310;258;1398;-46
2021/05/19 07:09:30;;;;;;;;;;;21.00;45.20;;;;;;460418;258;1228;-46
2021/05/19 07:11:31;;;;;;;;;;;21.00;45.10;;;;;;460345;258;1172;-46
2021/05/19 07:13:33;;;;;;;;;;;21.00;45.10;;;;;;460376;258;1491;-46
2021/05/19 07:15:37;;;;;;;;;;;21.00;45.10;;;;;;460314;258;1134;-46
2021/05/19 07:17:35;;;;;;;;;;;21.00;45.00;;;;;;460064;258;2443;-46
2021/05/19 07:19:36;;;;;;;;;;;21.10;45.10;;;;;;460363;258;1112;-46
2021/05/19 07:21:38;;;;;;;;;;;21.10;45.00;;;;;;460157;258;1443;-46
2021/05/19 07:23:39;;;;;;;;;;;21.10;45.00;;;;;;460147;258;1195;-46
2021/05/19 07:25:40;;;;;;;;;;;21.10;44.90;;;;;;460537;258;1244;-46
2021/05/19 07:27:41;;;;;;;;;;;21.10;44.90;;;;;;460554;258;1150;-46
2021/05/19 07:29:43;;;;;;;;;;;21.10;44.90;;;;;;460396;254;1143;-46
2021/05/19 07:31:45;;;;;;;;;;;21.10;44.90;;;;;;460528;258;1392;-46
2021/05/19 07:33:46;;;;;;;;;;;21.20;44.80;;;;;;460355;258;1759;-46
2021/05/19 07:35:47;;;;;;;;;;;21.10;44.80;;;;;;460155;258;1627;-46
2021/05/19 07:37:49;;;;;;;;;;;21.20;44.80;;;;;;460127;258;2215;-46
2021/05/19 07:39:50;;;;;;;;;;;21.20;44.80;;;;;;460477;258;2609;-46
2021/05/19 07:41:51;;;;;;;;;;;21.20;44.80;;;;;;460275;258;1337;-46
2021/05/19 07:43:52;;;;;;;;;;;21.20;44.80;;;;;;460441;258;1393;-46
2021/05/19 07:45:53;;;;;;;;;;;21.20;44.70;;;;;;460184;258;1241;-46
2021/05/19 07:47:55;;;;;;;;;;;21.30;44.70;;;;;;460294;258;919;-46
2021/05/19 07:49:56;;;;;;;;;;;21.30;44.70;;;;;;459950;258;1090;-46
2021/05/19 07:51:57;;;;;;;;;;;21.30;44.70;;;;;;460034;258;1300;-46
2021/05/19 07:53:58;;;;;;;;;;;21.30;44.70;;;;;;460001;258;1130;-46
2021/05/19 07:56:02;;;;;;;;;;;21.30;44.60;;;;;;459893;258;1348;-46
2021/05/19 07:58:03;;;;;;;;;;;21.30;44.60;;;;;;459864;258;2203;-46
2021/05/19 08:00:09;;;;;;;;;;;21.40;44.60;;;;;;459918;258;1392;-46
2021/05/19 08:02:10;;;;;;;;;;;21.30;44.50;;;;;;460055;258;1245;-46
2021/05/19 08:04:09;;;;;;;;;;;21.40;44.50;;;;;;459962;258;2121;-46
2021/05/19 08:06:10;;;;;;;;;;;21.40;44.50;;;;;;459976;258;1451;-46
2021/05/19 08:08:12;;;;;;;;;;;21.40;44.50;;;;;;460114;258;1429;-46
2021/05/19 08:10:13;;;;;;;;;;;21.40;44.50;;;;;;460123;258;1194;-46
2021/05/19 08:12:14;;;;;;;;;;;21.40;44.40;;;;;;459988;258;1316;-46
2021/05/19 08:14:15;;;;;;;;;;;21.40;44.40;;;;;;460269;258;1203;-46
2021/05/19 08:16:17;;;;;;;;;;;21.50;44.40;;;;;;460214;258;1324;-46
2021/05/19 08:18:19;;;;;;;;;;;21.50;44.40;;;;;;460185;258;2427;-46
2021/05/19 08:20:21;;;;;;;;;;;21.50;44.40;;;;;;460209;258;1688;-46
2021/05/19 08:22:21;;;;;;;;;;;21.50;44.40;;;;;;460168;258;2341;-46
2021/05/19 08:24:23;;;;;;;;;;;21.50;44.40;;;;;;460065;258;1140;-46
2021/05/19 08:26:24;;;;;;;;;;;21.50;44.40;;;;;;460070;258;1179;-46
2021/05/19 08:28:25;;;;;;;;;;;21.50;44.30;;;;;;460259;258;1483;-46
2021/05/19 08:30:27;;;;;;;;;;;21.50;44.30;;;;;;459964;258;1260;-46
2021/05/19 08:32:28;;;;;;;;;;;21.50;44.30;;;;;;460179;258;1197;-46
2021/05/19 08:34:29;;;;;;;;;;;21.50;44.30;;;;;;460247;258;1129;-46
2021/05/19 08:36:31;;;;;;;;;;;21.50;44.30;;;;;;460185;258;1359;-46
2021/05/19 08:38:34;;;;;;;;;;;21.60;44.30;;;;;;460160;258;2337;-46
2021/05/19 08:40:33;;;;;;;;;;;21.50;44.40;;;;;;459965;258;1491;-46
2021/05/19 08:42:34;;;;;;;;;;;21.00;45.40;;;;;;460405;258;1392;-46
2021/05/19 08:44:35;;;;;;;;;;;20.50;46.60;;;;;;460632;258;1500;-46
2021/05/19 08:46:37;;;;;;;;;;;20.10;47.50;;;;;;460488;258;1117;-46
2021/05/19 08:48:38;;;;;;;;;;;19.80;48.30;;;;;;461030;258;927;-46
2021/05/19 08:50:39;;;;;;;;;;;19.70;48.80;;;;;;460661;258;1128;-46
2021/05/19 08:52:43;;;;;;;;;;;19.60;49.10;;;;;;460565;258;1111;-46
2021/05/19 08:54:42;;;;;;;;;;;19.40;49.40;;;;;;460053;258;1531;-46
2021/05/19 08:56:43;;;;;;;;;;;19.30;49.70;;;;;;460270;258;1415;-46
2021/05/19 08:58:45;;;;;;;;;;;19.20;50.00;;;;;;460680;258;2192;-46
2021/05/19 09:00:46;;;;;;;;;;;19.10;50.10;;;;;;460137;258;1335;-45
2021/05/19 09:02:47;;;;;;;;;;;19.10;50.30;;;;;;460609;258;1087;-46
2021/05/19 09:04:49;;;;;;;;;;;19.00;50.40;;;;;;460205;258;1343;-46
2021/05/19 09:06:50;;;;;;;;;;;19.00;50.60;;;;;;459738;258;1344;-46
2021/05/19 09:08:51;;;;;;;;;;;19.00;50.70;;;;;;460408;258;1065;-46
2021/05/19 09:10:52;;;;;;;;;;;18.90;50.70;;;;;;460948;258;1417;-46
2021/05/19 09:12:54;;;;;;;;;;;18.90;50.80;;;;;;460657;258;1108;-46
2021/05/19 09:14:59;;;;;;;;;;;18.80;50.80;;;;;;460459;258;1208;-46
2021/05/19 09:16:57;;;;;;;;;;;18.80;51.00;;;;;;460053;258;1750;-46
2021/05/19 09:18:58;;;;;;;;;;;18.70;51.10;;;;;;460248;254;2154;-46
2021/05/19 09:20:59;;;;;;;;;;;18.70;51.30;;;;;;459723;258;1474;-46
2021/05/19 09:23:01;;;;;;;;;;;18.70;51.40;;;;;;459037;258;1107;-46
2021/05/19 09:25:02;;;;;;;;;;;18.70;51.40;;;;;;459750;258;1132;-46
2021/05/19 09:27:03;;;;;;;;;;;18.60;51.40;;;;;;459932;258;1337;-46
2021/05/19 09:29:04;;;;;;;;;;;18.60;51.40;;;;;;460171;258;1190;-46
2021/05/19 09:31:06;;;;;;;;;;;18.60;51.50;;;;;;460182;258;1335;-46
2021/05/19 09:33:07;;;;;;;;;;;18.60;51.50;;;;;;460344;258;1141;-46
2021/05/19 09:35:08;;;;;;;;;;;18.60;51.60;;;;;;460183;258;1123;-46
2021/05/19 09:37:10;;;;;;;;;;;18.50;51.60;;;;;;460011;258;1109;-46
2021/05/19 09:39:11;;;;;;;;;;;18.50;51.60;;;;;;460210;258;2200;-46
2021/05/19 09:41:12;;;;;;;;;;;18.60;51.50;;;;;;460261;258;1153;-46
2021/05/19 09:43:13;;;;;;;;;;;18.50;51.50;;;;;;460280;258;1350;-46
2021/05/19 09:45:15;;;;;;;;;;;18.50;51.60;;;;;;460372;258;1262;-46
2021/05/19 09:47:16;;;;;;;;;;;18.50;51.60;;;;;;460283;258;1252;-46
2021/05/19 09:49:17;;;;;;;;;;;18.40;51.70;;;;;;460380;258;1332;-46
2021/05/19 09:51:19;;;;;;;;;;;18.40;51.70;;;;;;460388;258;1098;-46
2021/05/19 09:53:20;;;;;;;;;;;18.40;51.70;;;;;;460453;258;1224;-46
2021/05/19 09:55:21;;;;;;;;;;;18.40;51.70;;;;;;460488;258;1115;-46
2021/05/19 09:57:24;;;;;;;;;;;18.40;51.70;;;;;;460283;258;1270;-46
2021/05/19 09:59:24;;;;;;;;;;;18.40;51.70;;;;;;460188;258;2348;-45
2021/05/19 10:01:25;;;;;;;;;;;18.40;51.80;;;;;;460376;258;1072;-46
2021/05/19 10:03:27;;;;;;;;;;;18.40;51.80;;;;;;460392;258;1127;-46
2021/05/19 10:05:31;;;;;;;;;;;18.40;51.80;;;;;;460479;258;1094;-46
2021/05/19 10:07:30;;;;;;;;;;;18.40;51.80;;;;;;460120;258;1798;-46
2021/05/19 10:09:31;;;;;;;;;;;18.30;51.80;;;;;;460644;258;1213;-46
2021/05/19 10:11:32;;;;;;;;;;;18.30;51.80;;;;;;460304;258;1158;-46
2021/05/19 10:13:34;;;;;;;;;;;18.30;51.90;;;;;;460331;258;1087;-46
2021/05/19 10:15:35;;;;;;;;;;;18.30;52.00;;;;;;460281;258;1217;-46
2021/05/19 10:17:36;;;;;;;;;;;18.30;52.00;;;;;;460283;258;1169;-46
2021/05/19 10:19:38;;;;;;;;;;;18.20;52.00;;;;;;460430;258;2200;-46
2021/05/19 10:21:39;;;;;;;;;;;18.30;52.00;;;;;;460372;258;1233;-46
2021/05/19 10:23:41;;;;;;;;;;;18.50;51.40;;;;;;460414;258;1211;-46
2021/05/19 10:25:42;;;;;;;;;;;18.90;50.30;;;;;;460165;258;2091;-46
2021/05/19 10:27:43;;;;;;;;;;;19.30;49.30;;;;;;460158;258;1963;-46
2021/05/19 10:29:44;;;;;;;;;;;19.60;48.60;;;;;;460536;258;1199;-46
2021/05/19 10:31:45;;;;;;;;;;;19.80;48.00;;;;;;460360;258;1415;-46
2021/05/19 10:33:47;;;;;;;;;;;20.00;47.60;;;;;;460505;258;1126;-46
2021/05/19 10:35:49;;;;;;;;;;;20.00;47.20;;;;;;460250;258;1299;-46
2021/05/19 10:37:50;;;;;;;;;;;20.20;47.00;;;;;;460063;258;2352;-46
2021/05/19 10:39:50;;;;;;;;;;;20.20;46.80;;;;;;460227;258;2320;-46
2021/05/19 10:41:52;;;;;;;;;;;20.30;46.70;;;;;;460232;258;1294;-46
2021/05/19 10:43:54;;;;;;;;;;;20.40;46.50;;;;;;460348;258;1148;-46
2021/05/19 10:45:57;;;;;;;;;;;20.40;46.30;;;;;;460066;258;2014;-46
2021/05/19 10:47:57;;;;;;;;;;;20.50;46.20;;;;;;460425;258;2084;-46
2021/05/19 10:50:02;;;;;;;;;;;20.50;46.10;;;;;;460440;258;1158;-46
2021/05/19 10:52:17;;;;;;;;;;;20.60;46.00;;;;;;460310;258;2122;-46
2021/05/19 10:58:52;;;;;;;;;;;20.70;45.80;;;;;;460203;258;2153;-46
2021/05/19 11:00:52;;;;;;;;;;;20.70;45.60;;;;;;460196;258;2020;-46
2021/05/19 11:02:54;;;;;;;;;;;20.80;45.60;;;;;;460182;258;1189;-46
2021/05/19 11:04:55;;;;;;;;;;;20.80;45.50;;;;;;460422;258;1213;-46
2021/05/19 11:06:57;;;;;;;;;;;20.80;45.50;;;;;;460225;258;1373;-46
2021/05/19 11:08:58;;;;;;;;;;;20.90;45.40;;;;;;459949;258;1632;-46
2021/05/19 11:11:03;;;;;;;;;;;20.90;45.30;;;;;;460043;258;1221;-46
2021/05/19 11:13:02;;;;;;;;;;;20.90;45.30;;;;;;460307;258;1413;-46
2021/05/19 11:15:04;;;;;;;;;;;20.90;45.20;;;;;;460951;258;882;-46
2021/05/19 11:17:12;;;;;;;;;;;20.90;45.20;;;;;;460467;258;1461;-46
2021/05/19 11:19:11;;;;;;;;;;;21.00;45.20;;;;;;460742;258;2205;-46
2021/05/19 11:21:10;;;;;;;;;;;21.00;45.10;;;;;;460402;258;2103;-46
2021/05/19 11:23:11;;;;;;;;;;;21.00;45.10;;;;;;460669;258;1017;-46
2021/05/19 11:25:14;;;;;;;;;;;21.00;45.00;;;;;;460708;258;952;-46
2021/05/19 11:27:14;;;;;;;;;;;21.10;45.00;;;;;;461001;258;2191;-46
2021/05/19 11:29:16;;;;;;;;;;;21.10;44.90;;;;;;460594;258;897;-46
2021/05/19 11:31:17;;;;;;;;;;;21.10;44.90;;;;;;460801;258;1179;-46
2021/05/19 11:33:21;;;;;;;;;;;21.10;44.90;;;;;;460239;258;1102;-46
2021/05/19 11:35:20;;;;;;;;;;;21.10;44.90;;;;;;460066;258;2268;-46
2021/05/19 11:37:21;;;;;;;;;;;21.10;44.90;;;;;;460182;258;1328;-46
2021/05/19 11:39:23;;;;;;;;;;;21.10;44.80;;;;;;460108;258;2168;-46
2021/05/19 11:41:24;;;;;;;;;;;21.20;44.80;;;;;;460217;258;1300;-46
2021/05/19 11:43:25;;;;;;;;;;;21.20;44.80;;;;;;460271;258;1099;-46
2021/05/19 11:45:26;;;;;;;;;;;21.20;44.80;;;;;;460224;258;1142;-46
2021/05/19 11:47:28;;;;;;;;;;;21.20;44.70;;;;;;460109;258;1445;-46
2021/05/19 11:49:29;;;;;;;;;;;21.20;44.80;;;;;;459552;258;1196;-46
2021/05/19 11:51:31;;;;;;;;;;;21.20;44.80;;;;;;459643;258;1313;-46
2021/05/19 11:53:32;;;;;;;;;;;21.20;44.70;;;;;;459607;258;1191;-46
2021/05/19 11:55:33;;;;;;;;;;;21.20;44.70;;;;;;459962;258;1320;-46
2021/05/19 11:57:34;;;;;;;;;;;21.20;44.70;;;;;;460086;258;1269;-46
2021/05/19 11:59:38;;;;;;;;;;;21.30;44.70;;;;;;459953;258;2220;-46
2021/05/19 12:01:37;;;;;;;;;;;21.30;44.60;;;;;;460027;258;1492;-46